sensor_id;sensor_type;location;lat;lon;timestamp;P1;durP1;ratioP1;P2;durP2;ratioP2
74363;SDS011;62797;49.740;10.154;2023-06-22T00:01:22;28.60;;;15.93;;
74363;SDS011;62797;49.740;10.154;2023-06-22T00:03:48;28.45;;;13.43;;
74363;SDS011;62797;49.740;10.154;2023-06-22T00:06:14;35.17;;;13.95;;
74363;SDS011;62797;49.740;10.154;2023-06-22T00:08:40;17.40;;;13.45;;
74363;SDS011;62797;49.740;10.154;2023-06-22T00:11:07;24.35;;;12.32;;
74363;SDS011;62797;49.740;10.154;2023-06-22T00:13:33;35.20;;;15.27;;
74363;SDS011;62797;49.740;10.154;2023-06-22T00:18:25;28.20;;;16.25;;
74363;SDS011;62797;49.740;10.154;2023-06-22T00:20:54;26.17;;;14.35;;
74363;SDS011;62797;49.740;10.154;2023-06-22T00:23:23;30.38;;;16.15;;
74363;SDS011;62797;49.740;10.154;2023-06-22T00:25:52;36.08;;;16.17;;
74363;SDS011;62797;49.740;10.154;2023-06-22T00:28:18;30.92;;;15.60;;
74363;SDS011;62797;49.740;10.154;2023-06-22T00:33:11;20.08;;;14.20;;
74363;SDS011;62797;49.740;10.154;2023-06-22T00:35:39;30.63;;;14.23;;
74363;SDS011;62797;49.740;10.154;2023-06-22T00:38:07;27.40;;;13.57;;
74363;SDS011;62797;49.740;10.154;2023-06-22T00:40:36;40.13;;;15.38;;
74363;SDS011;62797;49.740;10.154;2023-06-22T00:43:03;36.38;;;13.20;;
74363;SDS011;62797;49.740;10.154;2023-06-22T00:45:30;23.83;;;14.93;;
74363;SDS011;62797;49.740;10.154;2023-06-22T00:47:56;25.70;;;14.10;;
74363;SDS011;62797;49.740;10.154;2023-06-22T00:50:28;17.40;;;13.70;;
74363;SDS011;62797;49.740;10.154;2023-06-22T00:52:58;20.90;;;14.80;;
74363;SDS011;62797;49.740;10.154;2023-06-22T00:55:26;19.30;;;13.70;;
74363;SDS011;62797;49.740;10.154;2023-06-22T00:57:53;19.27;;;13.40;;
74363;SDS011;62797;49.740;10.154;2023-06-22T01:00:25;41.50;;;16.08;;
74363;SDS011;62797;49.740;10.154;2023-06-22T01:02:59;44.28;;;17.35;;
74363;SDS011;62797;49.740;10.154;2023-06-22T01:05:28;38.72;;;16.40;;
74363;SDS011;62797;49.740;10.154;2023-06-22T01:08:02;25.83;;;16.25;;
74363;SDS011;62797;49.740;10.154;2023-06-22T01:10:41;35.17;;;15.10;;
74363;SDS011;62797;49.740;10.154;2023-06-22T01:13:16;22.70;;;14.20;;
74363;SDS011;62797;49.740;10.154;2023-06-22T01:16:07;27.38;;;15.75;;
74363;SDS011;62797;49.740;10.154;2023-06-22T01:18:39;26.92;;;16.80;;
74363;SDS011;62797;49.740;10.154;2023-06-22T01:21:07;28.30;;;15.70;;
74363;SDS011;62797;49.740;10.154;2023-06-22T01:26:37;29.23;;;16.02;;
74363;SDS011;62797;49.740;10.154;2023-06-22T01:29:08;31.67;;;17.00;;
74363;SDS011;62797;49.740;10.154;2023-06-22T01:31:39;27.30;;;16.45;;
74363;SDS011;62797;49.740;10.154;2023-06-22T01:34:08;24.13;;;13.57;;
74363;SDS011;62797;49.740;10.154;2023-06-22T01:36:34;21.60;;;13.70;;
74363;SDS011;62797;49.740;10.154;2023-06-22T01:39:02;21.45;;;13.25;;
74363;SDS011;62797;49.740;10.154;2023-06-22T01:41:30;24.55;;;14.20;;
74363;SDS011;62797;49.740;10.154;2023-06-22T01:43:59;20.13;;;13.05;;
74363;SDS011;62797;49.740;10.154;2023-06-22T01:46:26;30.15;;;15.07;;
74363;SDS011;62797;49.740;10.154;2023-06-22T01:48:52;23.88;;;16.48;;
74363;SDS011;62797;49.740;10.154;2023-06-22T01:53:48;25.02;;;13.93;;
74363;SDS011;62797;49.740;10.154;2023-06-22T01:56:16;25.35;;;13.63;;
74363;SDS011;62797;49.740;10.154;2023-06-22T01:58:47;20.05;;;16.27;;
74363;SDS011;62797;49.740;10.154;2023-06-22T02:01:46;19.55;;;12.18;;
74363;SDS011;62797;49.740;10.154;2023-06-22T02:04:21;28.85;;;15.48;;
74363;SDS011;62797;49.740;10.154;2023-06-22T02:06:52;21.35;;;14.90;;
74363;SDS011;62797;49.740;10.154;2023-06-22T02:09:23;24.77;;;15.35;;
74363;SDS011;62797;49.740;10.154;2023-06-22T02:11:57;29.50;;;18.20;;
74363;SDS011;62797;49.740;10.154;2023-06-22T02:14:29;31.15;;;18.58;;
74363;SDS011;62797;49.740;10.154;2023-06-22T02:16:58;37.58;;;20.38;;
74363;SDS011;62797;49.740;10.154;2023-06-22T02:19:26;27.83;;;19.35;;
74363;SDS011;62797;49.740;10.154;2023-06-22T02:21:52;37.50;;;22.33;;
74363;SDS011;62797;49.740;10.154;2023-06-22T02:24:21;32.92;;;19.70;;
74363;SDS011;62797;49.740;10.154;2023-06-22T02:26:51;33.92;;;22.15;;
74363;SDS011;62797;49.740;10.154;2023-06-22T02:29:17;34.78;;;24.10;;
74363;SDS011;62797;49.740;10.154;2023-06-22T02:31:43;37.53;;;22.63;;
74363;SDS011;62797;49.740;10.154;2023-06-22T02:34:09;28.27;;;20.48;;
74363;SDS011;62797;49.740;10.154;2023-06-22T02:36:35;33.22;;;20.35;;
74363;SDS011;62797;49.740;10.154;2023-06-22T02:39:02;31.45;;;21.77;;
74363;SDS011;62797;49.740;10.154;2023-06-22T02:41:29;39.55;;;22.95;;
74363;SDS011;62797;49.740;10.154;2023-06-22T02:43:55;35.60;;;21.25;;
74363;SDS011;62797;49.740;10.154;2023-06-22T02:46:24;39.67;;;21.55;;
74363;SDS011;62797;49.740;10.154;2023-06-22T02:48:51;27.42;;;19.58;;
74363;SDS011;62797;49.740;10.154;2023-06-22T02:51:17;28.05;;;19.08;;
74363;SDS011;62797;49.740;10.154;2023-06-22T02:56:12;24.23;;;18.70;;
74363;SDS011;62797;49.740;10.154;2023-06-22T03:01:08;26.98;;;18.92;;
74363;SDS011;62797;49.740;10.154;2023-06-22T03:03:43;34.72;;;21.23;;
74363;SDS011;62797;49.740;10.154;2023-06-22T03:06:12;31.45;;;22.50;;
74363;SDS011;62797;49.740;10.154;2023-06-22T03:08:39;36.15;;;22.05;;
74363;SDS011;62797;49.740;10.154;2023-06-22T03:11:07;35.05;;;21.05;;
74363;SDS011;62797;49.740;10.154;2023-06-22T03:13:33;29.92;;;19.85;;
74363;SDS011;62797;49.740;10.154;2023-06-22T03:15:59;29.35;;;19.15;;
74363;SDS011;62797;49.740;10.154;2023-06-22T03:18:25;27.42;;;19.40;;
74363;SDS011;62797;49.740;10.154;2023-06-22T03:23:18;31.42;;;20.48;;
74363;SDS011;62797;49.740;10.154;2023-06-22T03:25:44;29.25;;;20.35;;
74363;SDS011;62797;49.740;10.154;2023-06-22T03:28:11;29.33;;;18.80;;
74363;SDS011;62797;49.740;10.154;2023-06-22T03:30:40;25.80;;;19.92;;
74363;SDS011;62797;49.740;10.154;2023-06-22T03:33:06;27.65;;;19.30;;
74363;SDS011;62797;49.740;10.154;2023-06-22T03:35:35;26.45;;;17.65;;
74363;SDS011;62797;49.740;10.154;2023-06-22T03:38:01;30.52;;;20.02;;
74363;SDS011;62797;49.740;10.154;2023-06-22T03:40:29;26.02;;;17.85;;
74363;SDS011;62797;49.740;10.154;2023-06-22T03:43:01;28.58;;;19.10;;
74363;SDS011;62797;49.740;10.154;2023-06-22T03:45:30;34.92;;;20.63;;
74363;SDS011;62797;49.740;10.154;2023-06-22T03:48:00;34.58;;;21.55;;
74363;SDS011;62797;49.740;10.154;2023-06-22T03:50:26;38.35;;;21.95;;
74363;SDS011;62797;49.740;10.154;2023-06-22T03:55:22;26.75;;;19.83;;
74363;SDS011;62797;49.740;10.154;2023-06-22T03:57:47;29.77;;;21.55;;
74363;SDS011;62797;49.740;10.154;2023-06-22T04:00:14;25.63;;;20.08;;
74363;SDS011;62797;49.740;10.154;2023-06-22T04:02:46;25.88;;;18.65;;
74363;SDS011;62797;49.740;10.154;2023-06-22T04:05:12;27.55;;;18.10;;
74363;SDS011;62797;49.740;10.154;2023-06-22T04:10:05;25.38;;;18.30;;
74363;SDS011;62797;49.740;10.154;2023-06-22T04:12:34;27.92;;;19.75;;
74363;SDS011;62797;49.740;10.154;2023-06-22T04:15:03;35.50;;;19.98;;
74363;SDS011;62797;49.740;10.154;2023-06-22T04:19:55;27.15;;;18.63;;
74363;SDS011;62797;49.740;10.154;2023-06-22T04:24:48;28.15;;;19.25;;
74363;SDS011;62797;49.740;10.154;2023-06-22T04:27:14;29.63;;;19.30;;
74363;SDS011;62797;49.740;10.154;2023-06-22T04:29:40;23.98;;;17.45;;
74363;SDS011;62797;49.740;10.154;2023-06-22T04:32:17;33.92;;;20.65;;
74363;SDS011;62797;49.740;10.154;2023-06-22T04:34:46;23.73;;;18.08;;
74363;SDS011;62797;49.740;10.154;2023-06-22T04:37:12;27.10;;;20.45;;
74363;SDS011;62797;49.740;10.154;2023-06-22T04:39:41;26.70;;;19.27;;
74363;SDS011;62797;49.740;10.154;2023-06-22T04:42:08;28.63;;;17.63;;
74363;SDS011;62797;49.740;10.154;2023-06-22T04:44:34;33.60;;;19.08;;
74363;SDS011;62797;49.740;10.154;2023-06-22T04:47:01;35.55;;;21.63;;
74363;SDS011;62797;49.740;10.154;2023-06-22T04:49:34;39.35;;;21.38;;
74363;SDS011;62797;49.740;10.154;2023-06-22T04:52:09;29.98;;;19.75;;
74363;SDS011;62797;49.740;10.154;2023-06-22T04:54:40;32.45;;;20.85;;
74363;SDS011;62797;49.740;10.154;2023-06-22T04:57:15;23.07;;;17.80;;
74363;SDS011;62797;49.740;10.154;2023-06-22T04:59:41;27.23;;;19.08;;
74363;SDS011;62797;49.740;10.154;2023-06-22T05:02:08;25.40;;;18.05;;
74363;SDS011;62797;49.740;10.154;2023-06-22T05:04:34;28.90;;;18.27;;
74363;SDS011;62797;49.740;10.154;2023-06-22T05:07:06;28.10;;;19.85;;
74363;SDS011;62797;49.740;10.154;2023-06-22T05:11:59;28.70;;;21.13;;
74363;SDS011;62797;49.740;10.154;2023-06-22T05:14:29;28.63;;;20.52;;
74363;SDS011;62797;49.740;10.154;2023-06-22T05:16:58;25.02;;;19.55;;
74363;SDS011;62797;49.740;10.154;2023-06-22T05:19:24;28.25;;;20.45;;
74363;SDS011;62797;49.740;10.154;2023-06-22T05:21:56;24.17;;;18.90;;
74363;SDS011;62797;49.740;10.154;2023-06-22T05:24:22;39.13;;;22.33;;
74363;SDS011;62797;49.740;10.154;2023-06-22T05:26:49;27.70;;;18.48;;
74363;SDS011;62797;49.740;10.154;2023-06-22T05:29:15;27.55;;;18.02;;
74363;SDS011;62797;49.740;10.154;2023-06-22T05:31:43;28.67;;;18.90;;
74363;SDS011;62797;49.740;10.154;2023-06-22T05:34:09;26.60;;;17.50;;
74363;SDS011;62797;49.740;10.154;2023-06-22T05:36:36;35.72;;;19.27;;
74363;SDS011;62797;49.740;10.154;2023-06-22T05:39:10;28.60;;;17.77;;
74363;SDS011;62797;49.740;10.154;2023-06-22T05:44:04;25.35;;;18.02;;
74363;SDS011;62797;49.740;10.154;2023-06-22T05:46:34;32.05;;;17.45;;
74363;SDS011;62797;49.740;10.154;2023-06-22T05:49:00;31.35;;;19.23;;
74363;SDS011;62797;49.740;10.154;2023-06-22T05:51:29;23.33;;;16.02;;
74363;SDS011;62797;49.740;10.154;2023-06-22T05:53:55;28.00;;;16.92;;
74363;SDS011;62797;49.740;10.154;2023-06-22T05:56:20;25.07;;;18.13;;
74363;SDS011;62797;49.740;10.154;2023-06-22T05:58:49;23.55;;;16.73;;
74363;SDS011;62797;49.740;10.154;2023-06-22T06:01:15;25.67;;;19.05;;
74363;SDS011;62797;49.740;10.154;2023-06-22T06:03:41;25.17;;;19.25;;
74363;SDS011;62797;49.740;10.154;2023-06-22T06:08:36;23.40;;;17.85;;
74363;SDS011;62797;49.740;10.154;2023-06-22T06:11:05;26.98;;;18.02;;
74363;SDS011;62797;49.740;10.154;2023-06-22T06:13:31;22.02;;;16.40;;
74363;SDS011;62797;49.740;10.154;2023-06-22T06:16:01;27.48;;;17.58;;
74363;SDS011;62797;49.740;10.154;2023-06-22T06:18:27;26.20;;;19.33;;
74363;SDS011;62797;49.740;10.154;2023-06-22T06:20:53;26.08;;;16.95;;
74363;SDS011;62797;49.740;10.154;2023-06-22T06:23:19;20.20;;;16.33;;
74363;SDS011;62797;49.740;10.154;2023-06-22T06:25:45;28.98;;;18.02;;
74363;SDS011;62797;49.740;10.154;2023-06-22T06:28:12;25.63;;;18.55;;
74363;SDS011;62797;49.740;10.154;2023-06-22T06:30:37;28.05;;;19.13;;
74363;SDS011;62797;49.740;10.154;2023-06-22T06:33:04;25.30;;;17.80;;
74363;SDS011;62797;49.740;10.154;2023-06-22T06:35:33;24.20;;;17.92;;
74363;SDS011;62797;49.740;10.154;2023-06-22T06:38:00;20.50;;;15.45;;
74363;SDS011;62797;49.740;10.154;2023-06-22T06:40:26;23.92;;;17.90;;
74363;SDS011;62797;49.740;10.154;2023-06-22T06:42:52;30.45;;;16.58;;
74363;SDS011;62797;49.740;10.154;2023-06-22T06:45:19;27.15;;;18.88;;
74363;SDS011;62797;49.740;10.154;2023-06-22T06:47:47;25.20;;;17.02;;
74363;SDS011;62797;49.740;10.154;2023-06-22T06:50:17;21.13;;;16.33;;
74363;SDS011;62797;49.740;10.154;2023-06-22T06:52:43;26.63;;;17.85;;
74363;SDS011;62797;49.740;10.154;2023-06-22T06:55:10;20.52;;;15.98;;
74363;SDS011;62797;49.740;10.154;2023-06-22T06:57:40;20.40;;;15.07;;
74363;SDS011;62797;49.740;10.154;2023-06-22T07:00:08;23.30;;;16.30;;
74363;SDS011;62797;49.740;10.154;2023-06-22T07:02:38;28.85;;;18.77;;
74363;SDS011;62797;49.740;10.154;2023-06-22T07:05:07;26.65;;;17.25;;
74363;SDS011;62797;49.740;10.154;2023-06-22T07:07:34;22.95;;;15.13;;
74363;SDS011;62797;49.740;10.154;2023-06-22T07:10:00;22.10;;;16.45;;
74363;SDS011;62797;49.740;10.154;2023-06-22T07:12:26;20.45;;;16.38;;
74363;SDS011;62797;49.740;10.154;2023-06-22T07:15:00;24.17;;;15.82;;
74363;SDS011;62797;49.740;10.154;2023-06-22T07:17:30;20.50;;;16.33;;
74363;SDS011;62797;49.740;10.154;2023-06-22T07:19:56;17.83;;;15.13;;
74363;SDS011;62797;49.740;10.154;2023-06-22T07:22:23;21.30;;;15.82;;
74363;SDS011;62797;49.740;10.154;2023-06-22T07:24:48;24.15;;;15.07;;
74363;SDS011;62797;49.740;10.154;2023-06-22T07:27:15;19.27;;;15.32;;
74363;SDS011;62797;49.740;10.154;2023-06-22T07:29:47;24.05;;;15.32;;
74363;SDS011;62797;49.740;10.154;2023-06-22T07:32:13;26.48;;;14.98;;
74363;SDS011;62797;49.740;10.154;2023-06-22T07:34:39;18.33;;;14.05;;
74363;SDS011;62797;49.740;10.154;2023-06-22T07:37:06;17.35;;;14.02;;
74363;SDS011;62797;49.740;10.154;2023-06-22T07:39:35;18.48;;;13.35;;
74363;SDS011;62797;49.740;10.154;2023-06-22T07:42:03;21.25;;;14.52;;
74363;SDS011;62797;49.740;10.154;2023-06-22T07:46:55;22.98;;;12.90;;
74363;SDS011;62797;49.740;10.154;2023-06-22T07:49:21;17.70;;;12.80;;
74363;SDS011;62797;49.740;10.154;2023-06-22T07:51:47;16.58;;;11.15;;
74363;SDS011;62797;49.740;10.154;2023-06-22T07:54:12;16.73;;;12.00;;
74363;SDS011;62797;49.740;10.154;2023-06-22T07:56:40;17.48;;;10.73;;
74363;SDS011;62797;49.740;10.154;2023-06-22T07:59:06;13.32;;;9.77;;
74363;SDS011;62797;49.740;10.154;2023-06-22T08:01:32;16.88;;;11.30;;
74363;SDS011;62797;49.740;10.154;2023-06-22T08:03:58;14.65;;;10.70;;
74363;SDS011;62797;49.740;10.154;2023-06-22T08:06:24;12.35;;;10.68;;
74363;SDS011;62797;49.740;10.154;2023-06-22T08:08:50;15.77;;;10.73;;
74363;SDS011;62797;49.740;10.154;2023-06-22T08:11:18;13.88;;;9.65;;
74363;SDS011;62797;49.740;10.154;2023-06-22T08:13:43;15.25;;;10.93;;
74363;SDS011;62797;49.740;10.154;2023-06-22T08:16:10;15.32;;;9.68;;
74363;SDS011;62797;49.740;10.154;2023-06-22T08:18:35;12.20;;;9.05;;
74363;SDS011;62797;49.740;10.154;2023-06-22T08:21:05;14.30;;;9.77;;
74363;SDS011;62797;49.740;10.154;2023-06-22T08:23:31;13.07;;;8.98;;
74363;SDS011;62797;49.740;10.154;2023-06-22T08:25:57;10.52;;;8.25;;
74363;SDS011;62797;49.740;10.154;2023-06-22T08:28:23;16.00;;;8.90;;
74363;SDS011;62797;49.740;10.154;2023-06-22T08:30:49;11.15;;;7.57;;
74363;SDS011;62797;49.740;10.154;2023-06-22T08:33:15;11.55;;;8.30;;
74363;SDS011;62797;49.740;10.154;2023-06-22T08:35:41;11.65;;;8.05;;
74363;SDS011;62797;49.740;10.154;2023-06-22T08:38:07;13.82;;;7.90;;
74363;SDS011;62797;49.740;10.154;2023-06-22T08:40:33;10.90;;;7.40;;
74363;SDS011;62797;49.740;10.154;2023-06-22T08:42:59;10.82;;;8.02;;
74363;SDS011;62797;49.740;10.154;2023-06-22T08:45:25;13.07;;;8.95;;
74363;SDS011;62797;49.740;10.154;2023-06-22T08:47:51;13.88;;;8.05;;
74363;SDS011;62797;49.740;10.154;2023-06-22T08:50:17;11.80;;;7.65;;
74363;SDS011;62797;49.740;10.154;2023-06-22T08:52:43;10.85;;;7.70;;
74363;SDS011;62797;49.740;10.154;2023-06-22T08:55:09;14.80;;;6.88;;
74363;SDS011;62797;49.740;10.154;2023-06-22T08:57:35;10.10;;;7.53;;
74363;SDS011;62797;49.740;10.154;2023-06-22T09:00:06;12.50;;;7.65;;
74363;SDS011;62797;49.740;10.154;2023-06-22T09:02:52;13.30;;;8.00;;
74363;SDS011;62797;49.740;10.154;2023-06-22T09:05:27;12.75;;;7.93;;
74363;SDS011;62797;49.740;10.154;2023-06-22T09:07:53;9.23;;;7.20;;
74363;SDS011;62797;49.740;10.154;2023-06-22T09:10:20;11.35;;;7.75;;
74363;SDS011;62797;49.740;10.154;2023-06-22T09:12:46;10.50;;;7.25;;
74363;SDS011;62797;49.740;10.154;2023-06-22T09:17:38;10.95;;;7.93;;
74363;SDS011;62797;49.740;10.154;2023-06-22T09:20:05;12.13;;;7.60;;
74363;SDS011;62797;49.740;10.154;2023-06-22T09:22:33;10.48;;;7.47;;
74363;SDS011;62797;49.740;10.154;2023-06-22T09:24:59;9.35;;;7.50;;
74363;SDS011;62797;49.740;10.154;2023-06-22T09:27:28;9.65;;;6.85;;
74363;SDS011;62797;49.740;10.154;2023-06-22T09:29:54;7.85;;;6.25;;
74363;SDS011;62797;49.740;10.154;2023-06-22T09:32:20;9.45;;;6.22;;
74363;SDS011;62797;49.740;10.154;2023-06-22T09:37:12;7.72;;;5.57;;
74363;SDS011;62797;49.740;10.154;2023-06-22T09:39:38;10.82;;;5.85;;
74363;SDS011;62797;49.740;10.154;2023-06-22T09:42:07;8.40;;;4.82;;
74363;SDS011;62797;49.740;10.154;2023-06-22T09:44:34;12.43;;;5.97;;
74363;SDS011;62797;49.740;10.154;2023-06-22T09:47:00;12.65;;;5.97;;
74363;SDS011;62797;49.740;10.154;2023-06-22T09:49:26;10.25;;;7.18;;
74363;SDS011;62797;49.740;10.154;2023-06-22T09:54:18;9.02;;;5.97;;
74363;SDS011;62797;49.740;10.154;2023-06-22T09:56:50;7.03;;;5.35;;
74363;SDS011;62797;49.740;10.154;2023-06-22T10:01:42;11.25;;;5.57;;
74363;SDS011;62797;49.740;10.154;2023-06-22T10:06:33;10.57;;;6.00;;
74363;SDS011;62797;49.740;10.154;2023-06-22T10:11:28;9.75;;;4.75;;
74363;SDS011;62797;49.740;10.154;2023-06-22T10:13:55;10.98;;;5.20;;
74363;SDS011;62797;49.740;10.154;2023-06-22T10:16:30;8.18;;;5.32;;
74363;SDS011;62797;49.740;10.154;2023-06-22T10:18:57;8.32;;;5.03;;
74363;SDS011;62797;49.740;10.154;2023-06-22T10:23:48;9.98;;;5.53;;
74363;SDS011;62797;49.740;10.154;2023-06-22T10:26:19;9.63;;;4.90;;
74363;SDS011;62797;49.740;10.154;2023-06-22T10:28:45;10.35;;;5.30;;
74363;SDS011;62797;49.740;10.154;2023-06-22T10:33:40;10.20;;;5.43;;
74363;SDS011;62797;49.740;10.154;2023-06-22T10:36:08;9.50;;;5.95;;
74363;SDS011;62797;49.740;10.154;2023-06-22T10:38:37;8.95;;;5.38;;
74363;SDS011;62797;49.740;10.154;2023-06-22T10:41:03;14.15;;;5.97;;
74363;SDS011;62797;49.740;10.154;2023-06-22T10:45:58;17.95;;;5.95;;
74363;SDS011;62797;49.740;10.154;2023-06-22T10:48:24;9.93;;;5.05;;
74363;SDS011;62797;49.740;10.154;2023-06-22T10:50:51;15.02;;;5.70;;
74363;SDS011;62797;49.740;10.154;2023-06-22T10:53:18;9.32;;;4.57;;
74363;SDS011;62797;49.740;10.154;2023-06-22T10:55:44;8.95;;;5.15;;
74363;SDS011;62797;49.740;10.154;2023-06-22T11:00:36;14.13;;;6.28;;
74363;SDS011;62797;49.740;10.154;2023-06-22T11:03:02;9.93;;;5.80;;
74363;SDS011;62797;49.740;10.154;2023-06-22T11:05:34;13.25;;;5.18;;
74363;SDS011;62797;49.740;10.154;2023-06-22T11:10:26;10.57;;;5.40;;
74363;SDS011;62797;49.740;10.154;2023-06-22T11:12:56;9.20;;;4.90;;
74363;SDS011;62797;49.740;10.154;2023-06-22T11:15:25;14.30;;;6.65;;
74363;SDS011;62797;49.740;10.154;2023-06-22T11:20:17;11.00;;;5.40;;
74363;SDS011;62797;49.740;10.154;2023-06-22T11:22:43;9.55;;;5.35;;
74363;SDS011;62797;49.740;10.154;2023-06-22T11:25:09;15.98;;;6.72;;
74363;SDS011;62797;49.740;10.154;2023-06-22T11:27:37;13.30;;;5.22;;
74363;SDS011;62797;49.740;10.154;2023-06-22T11:30:03;9.60;;;4.90;;
74363;SDS011;62797;49.740;10.154;2023-06-22T11:32:29;15.95;;;5.50;;
74363;SDS011;62797;49.740;10.154;2023-06-22T11:34:56;12.13;;;6.43;;
74363;SDS011;62797;49.740;10.154;2023-06-22T11:37:22;13.95;;;5.85;;
74363;SDS011;62797;49.740;10.154;2023-06-22T11:39:48;11.57;;;5.55;;
74363;SDS011;62797;49.740;10.154;2023-06-22T11:42:14;14.30;;;5.63;;
74363;SDS011;62797;49.740;10.154;2023-06-22T11:47:05;13.48;;;5.63;;
74363;SDS011;62797;49.740;10.154;2023-06-22T11:49:31;9.90;;;5.40;;
74363;SDS011;62797;49.740;10.154;2023-06-22T11:54:23;11.82;;;5.88;;
74363;SDS011;62797;49.740;10.154;2023-06-22T11:59:15;12.20;;;6.03;;
74363;SDS011;62797;49.740;10.154;2023-06-22T12:04:06;17.00;;;6.65;;
74363;SDS011;62797;49.740;10.154;2023-06-22T12:08:58;10.80;;;5.28;;
74363;SDS011;62797;49.740;10.154;2023-06-22T12:11:24;9.77;;;4.90;;
74363;SDS011;62797;49.740;10.154;2023-06-22T12:13:51;11.50;;;5.75;;
74363;SDS011;62797;49.740;10.154;2023-06-22T12:16:17;11.48;;;5.50;;
74363;SDS011;62797;49.740;10.154;2023-06-22T12:18:45;12.05;;;5.00;;
74363;SDS011;62797;49.740;10.154;2023-06-22T12:21:11;9.10;;;5.20;;
74363;SDS011;62797;49.740;10.154;2023-06-22T12:23:40;11.73;;;5.47;;
74363;SDS011;62797;49.740;10.154;2023-06-22T12:26:06;13.07;;;5.32;;
74363;SDS011;62797;49.740;10.154;2023-06-22T12:28:32;12.60;;;5.63;;
74363;SDS011;62797;49.740;10.154;2023-06-22T12:30:57;11.50;;;5.05;;
74363;SDS011;62797;49.740;10.154;2023-06-22T12:33:23;12.30;;;5.40;;
74363;SDS011;62797;49.740;10.154;2023-06-22T12:38:15;12.00;;;5.90;;
74363;SDS011;62797;49.740;10.154;2023-06-22T12:43:07;12.77;;;5.78;;
74363;SDS011;62797;49.740;10.154;2023-06-22T12:47:59;17.52;;;5.38;;
74363;SDS011;62797;49.740;10.154;2023-06-22T12:50:26;8.55;;;4.95;;
74363;SDS011;62797;49.740;10.154;2023-06-22T12:53:04;10.25;;;5.38;;
74363;SDS011;62797;49.740;10.154;2023-06-22T12:55:31;10.65;;;5.10;;
74363;SDS011;62797;49.740;10.154;2023-06-22T12:57:57;10.90;;;6.07;;
74363;SDS011;62797;49.740;10.154;2023-06-22T13:00:23;16.17;;;5.80;;
74363;SDS011;62797;49.740;10.154;2023-06-22T13:02:49;8.45;;;5.05;;
74363;SDS011;62797;49.740;10.154;2023-06-22T13:07:40;10.55;;;5.53;;
74363;SDS011;62797;49.740;10.154;2023-06-22T13:10:08;16.17;;;5.28;;
74363;SDS011;62797;49.740;10.154;2023-06-22T13:12:34;10.95;;;5.30;;
74363;SDS011;62797;49.740;10.154;2023-06-22T13:15:00;17.67;;;5.47;;
74363;SDS011;62797;49.740;10.154;2023-06-22T13:19:51;11.77;;;6.30;;
74363;SDS011;62797;49.740;10.154;2023-06-22T13:24:56;11.18;;;5.97;;
74363;SDS011;62797;49.740;10.154;2023-06-22T13:27:23;12.98;;;5.20;;
74363;SDS011;62797;49.740;10.154;2023-06-22T13:29:49;15.23;;;5.75;;
74363;SDS011;62797;49.740;10.154;2023-06-22T13:32:15;10.65;;;4.75;;
74363;SDS011;62797;49.740;10.154;2023-06-22T13:34:41;16.33;;;5.78;;
74363;SDS011;62797;49.740;10.154;2023-06-22T13:37:08;15.35;;;5.47;;
74363;SDS011;62797;49.740;10.154;2023-06-22T13:39:34;13.52;;;5.65;;
74363;SDS011;62797;49.740;10.154;2023-06-22T13:42:00;9.63;;;4.78;;
74363;SDS011;62797;49.740;10.154;2023-06-22T13:44:25;9.70;;;5.35;;
74363;SDS011;62797;49.740;10.154;2023-06-22T13:46:57;16.02;;;5.90;;
74363;SDS011;62797;49.740;10.154;2023-06-22T13:49:23;19.92;;;4.88;;
74363;SDS011;62797;49.740;10.154;2023-06-22T13:54:14;12.98;;;5.55;;
74363;SDS011;62797;49.740;10.154;2023-06-22T13:56:40;11.90;;;5.22;;
74363;SDS011;62797;49.740;10.154;2023-06-22T13:59:06;19.67;;;5.45;;
74363;SDS011;62797;49.740;10.154;2023-06-22T14:01:34;11.07;;;4.82;;
74363;SDS011;62797;49.740;10.154;2023-06-22T14:04:00;14.88;;;4.68;;
74363;SDS011;62797;49.740;10.154;2023-06-22T14:06:29;13.38;;;6.18;;
74363;SDS011;62797;49.740;10.154;2023-06-22T14:08:55;14.18;;;5.03;;
74363;SDS011;62797;49.740;10.154;2023-06-22T14:11:21;8.73;;;4.25;;
74363;SDS011;62797;49.740;10.154;2023-06-22T14:13:47;8.15;;;4.85;;
74363;SDS011;62797;49.740;10.154;2023-06-22T14:16:13;13.85;;;5.30;;
74363;SDS011;62797;49.740;10.154;2023-06-22T14:18:39;13.50;;;5.00;;
74363;SDS011;62797;49.740;10.154;2023-06-22T14:21:05;9.75;;;5.47;;
74363;SDS011;62797;49.740;10.154;2023-06-22T14:23:32;9.90;;;5.35;;
74363;SDS011;62797;49.740;10.154;2023-06-22T14:26:01;14.48;;;6.20;;
74363;SDS011;62797;49.740;10.154;2023-06-22T14:28:26;13.07;;;4.63;;
74363;SDS011;62797;49.740;10.154;2023-06-22T14:30:52;13.70;;;5.30;;
74363;SDS011;62797;49.740;10.154;2023-06-22T14:33:18;14.85;;;6.15;;
74363;SDS011;62797;49.740;10.154;2023-06-22T14:35:44;12.25;;;5.07;;
74363;SDS011;62797;49.740;10.154;2023-06-22T14:38:09;14.52;;;4.53;;
74363;SDS011;62797;49.740;10.154;2023-06-22T14:40:35;11.65;;;5.35;;
74363;SDS011;62797;49.740;10.154;2023-06-22T14:43:01;12.85;;;5.45;;
74363;SDS011;62797;49.740;10.154;2023-06-22T14:45:27;14.55;;;5.47;;
74363;SDS011;62797;49.740;10.154;2023-06-22T14:47:53;15.57;;;5.30;;
74363;SDS011;62797;49.740;10.154;2023-06-22T14:50:18;12.13;;;5.35;;
74363;SDS011;62797;49.740;10.154;2023-06-22T14:52:44;12.68;;;5.78;;
74363;SDS011;62797;49.740;10.154;2023-06-22T14:55:10;14.00;;;5.57;;
74363;SDS011;62797;49.740;10.154;2023-06-22T14:57:36;12.75;;;4.93;;
74363;SDS011;62797;49.740;10.154;2023-06-22T15:00:02;19.08;;;4.65;;
74363;SDS011;62797;49.740;10.154;2023-06-22T15:02:29;19.13;;;4.95;;
74363;SDS011;62797;49.740;10.154;2023-06-22T15:04:54;16.85;;;5.30;;
74363;SDS011;62797;49.740;10.154;2023-06-22T15:07:23;15.40;;;4.50;;
74363;SDS011;62797;49.740;10.154;2023-06-22T15:09:53;15.68;;;5.82;;
74363;SDS011;62797;49.740;10.154;2023-06-22T15:12:18;10.45;;;4.45;;
74363;SDS011;62797;49.740;10.154;2023-06-22T15:14:45;20.20;;;5.90;;
74363;SDS011;62797;49.740;10.154;2023-06-22T15:17:10;16.70;;;5.05;;
74363;SDS011;62797;49.740;10.154;2023-06-22T15:19:39;17.33;;;5.07;;
74363;SDS011;62797;49.740;10.154;2023-06-22T15:22:05;26.05;;;5.22;;
74363;SDS011;62797;49.740;10.154;2023-06-22T15:24:34;17.67;;;5.50;;
74363;SDS011;62797;49.740;10.154;2023-06-22T15:27:00;13.57;;;5.18;;
74363;SDS011;62797;49.740;10.154;2023-06-22T15:29:26;12.57;;;3.95;;
74363;SDS011;62797;49.740;10.154;2023-06-22T15:31:52;12.43;;;4.93;;
74363;SDS011;62797;49.740;10.154;2023-06-22T15:34:19;12.95;;;4.55;;
74363;SDS011;62797;49.740;10.154;2023-06-22T15:36:45;14.68;;;4.13;;
74363;SDS011;62797;49.740;10.154;2023-06-22T15:39:11;13.30;;;4.38;;
74363;SDS011;62797;49.740;10.154;2023-06-22T15:41:40;15.77;;;4.22;;
74363;SDS011;62797;49.740;10.154;2023-06-22T15:44:07;21.00;;;4.75;;
74363;SDS011;62797;49.740;10.154;2023-06-22T15:46:33;18.08;;;6.03;;
74363;SDS011;62797;49.740;10.154;2023-06-22T15:49:02;20.50;;;4.60;;
74363;SDS011;62797;49.740;10.154;2023-06-22T15:51:31;23.52;;;5.07;;
74363;SDS011;62797;49.740;10.154;2023-06-22T15:53:56;20.33;;;5.88;;